Time;durP1;ratioP1;P1;durP2;ratioP2;P2;SDS_P1;SDS_P2;PMS_P1;PMS_P2;Temp;Humidity;BMP_temperature;BMP_pressure;BME280_temperature;BME280_humidity;BME280_pressure;Samples;Min_cycle;Max_cycle;Signal;HPM_P1;HPM_P2
2023/07/28 00:01:25;;;;;;;6.00;1.80;;;;;;;27.94;46.80;96426.38;5015452;28;20022;-29
2023/07/28 00:03:52;;;;;;;5.55;2.00;;;;;;;27.88;46.95;96431.31;5014954;28;20033;-29
2023/07/28 00:06:17;;;;;;;4.10;1.63;;;;;;;27.87;46.98;96416.63;5015303;28;20110;-28
2023/07/28 00:08:42;;;;;;;3.78;1.83;;;;;;;27.88;47.16;96406.22;5015763;28;20100;-30
2023/07/28 00:11:14;;;;;;;3.65;1.60;;;;;;;27.93;46.50;96416.50;5015274;28;20382;-29
2023/07/28 00:13:41;;;;;;;5.77;1.50;;;;;;;27.69;47.27;96416.84;5015129;28;20141;-29
2023/07/28 00:16:07;;;;;;;7.35;1.85;;;;;;;27.77;47.10;96415.63;5015560;28;20037;-29
2023/07/28 00:18:32;;;;;;;7.47;1.70;;;;;;;27.73;47.16;96420.00;5015054;28;20026;-29
2023/07/28 00:20:58;;;;;;;6.72;1.42;;;;;;;27.67;47.08;96422.94;5014587;28;20022;-29
2023/07/28 00:23:24;;;;;;;5.75;1.80;;;;;;;27.68;46.90;96426.47;5015080;28;20026;-29
2023/07/28 00:25:50;;;;;;;6.53;1.73;;;;;;;27.84;46.79;96419.75;5015004;28;20113;-30
2023/07/28 00:28:16;;;;;;;8.43;2.17;;;;;;;27.86;46.62;96423.50;5015278;28;20104;-29
2023/07/28 00:30:41;;;;;;;6.47;1.58;;;;;;;27.74;46.80;96424.28;5014685;28;20025;-29
2023/07/28 00:33:07;;;;;;;5.18;1.90;;;;;;;27.79;46.48;96415.06;5014591;28;20032;-29
2023/07/28 00:35:32;;;;;;;4.53;1.67;;;;;;;27.83;46.60;96412.69;5014729;28;20458;-29
2023/07/28 00:37:58;;;;;;;7.22;1.88;;;;;;;27.91;46.38;96421.88;5014828;28;20014;-30
2023/07/28 00:40:24;;;;;;;6.88;1.80;;;;;;;27.96;46.49;96415.41;5013390;28;20704;-29
2023/07/28 00:42:49;;;;;;;5.30;1.50;;;;;;;27.89;46.13;96427.25;5014595;28;20025;-29
2023/07/28 00:45:15;;;;;;;5.32;2.13;;;;;;;28.00;46.20;96421.41;5014428;28;20029;-29
2023/07/28 00:47:41;;;;;;;8.32;1.75;;;;;;;27.94;46.36;96420.81;5014451;28;20501;-29
2023/07/28 00:50:09;;;;;;;5.25;1.65;;;;;;;28.00;46.25;96415.81;5014583;28;20030;-29
2023/07/28 00:52:35;;;;;;;6.47;1.70;;;;;;;27.77;46.43;96417.66;5021489;28;20036;-29
2023/07/28 00:55:01;;;;;;;8.20;2.33;;;;;;;27.87;46.48;96413.09;5014569;28;20027;-29
2023/07/28 00:57:27;;;;;;;4.50;1.42;;;;;;;27.94;46.53;96408.91;5014436;28;20089;-29
2023/07/28 00:59:52;;;;;;;8.80;2.05;;;;;;;27.86;46.59;96398.41;5013152;28;20052;-29
2023/07/28 01:02:19;;;;;;;7.40;2.17;;;;;;;27.84;46.39;96403.03;5014049;28;20026;-30
2023/07/28 01:04:45;;;;;;;5.10;1.65;;;;;;;27.61;47.03;96407.63;5013914;28;20079;-29
2023/07/28 01:07:20;;;;;;;4.47;1.75;;;;;;;27.79;46.58;96395.56;5013763;28;20429;-30
2023/07/28 01:09:54;;;;;;;5.47;1.40;;;;;;;27.73;47.09;96406.09;5013845;28;20026;-30
2023/07/28 01:12:20;;;;;;;6.97;2.42;;;;;;;27.66;47.16;96403.97;5014141;28;20025;-29
2023/07/28 01:14:45;;;;;;;6.30;1.50;;;;;;;27.87;46.42;96394.34;5014048;28;20036;-29
2023/07/28 01:17:10;;;;;;;4.90;1.60;;;;;;;27.75;46.75;96384.00;5014099;28;20053;-29
2023/07/28 01:19:36;;;;;;;4.80;1.65;;;;;;;27.69;46.67;96386.94;5014194;28;20026;-29
2023/07/28 01:22:08;;;;;;;6.53;1.67;;;;;;;27.90;46.35;96384.16;5013927;28;20115;-29
2023/07/28 01:25:12;;;;;;;7.45;2.53;;;;;;;27.86;46.42;96387.25;5013927;28;20025;-29
2023/07/28 01:27:42;;;;;;;6.22;1.70;;;;;;;27.86;46.35;96389.31;5013430;28;20119;-29
2023/07/28 01:30:09;;;;;;;4.03;1.40;;;;;;;27.73;46.37;96372.63;5013584;28;20026;-29
2023/07/28 01:32:35;;;;;;;5.47;1.83;;;;;;;27.64;47.12;96368.28;5013819;28;20428;-29
2023/07/28 01:35:03;;;;;;;5.03;1.70;;;;;;;27.62;46.60;96372.91;5013658;28;20108;-31
2023/07/28 01:37:28;;;;;;;10.90;2.38;;;;;;;27.66;46.48;96376.13;5021081;28;20406;-29
2023/07/28 01:39:54;;;;;;;8.32;1.90;;;;;;;27.79;46.63;96382.38;5013696;28;20084;-30
2023/07/28 01:42:20;;;;;;;4.97;1.65;;;;;;;27.64;46.77;96387.78;5013390;28;20080;-29
2023/07/28 01:44:45;;;;;;;5.18;1.60;;;;;;;27.77;46.25;96387.75;5013491;28;20104;-31
2023/07/28 01:47:11;;;;;;;5.40;1.70;;;;;;;27.77;46.61;96382.16;5013236;28;20113;-30
2023/07/28 01:49:36;;;;;;;6.53;2.15;;;;;;;27.74;46.63;96371.34;5013380;28;20029;-29
2023/07/28 01:52:02;;;;;;;6.40;1.85;;;;;;;27.75;46.26;96375.63;5020691;28;20021;-29
2023/07/28 01:54:28;;;;;;;4.07;1.77;;;;;;;27.91;46.27;96377.28;5013429;28;20585;-30
2023/07/28 01:56:53;;;;;;;7.07;1.80;;;;;;;27.74;46.73;96385.28;5012265;28;20018;-30
2023/07/28 01:59:20;;;;;;;5.47;1.63;;;;;;;27.72;46.39;96393.44;5013536;28;20018;-29
2023/07/28 02:01:45;;;;;;;6.13;1.80;;;;;;;27.63;46.90;96385.56;5013193;28;20080;-29
2023/07/28 02:04:11;;;;;;;3.90;1.50;;;;;;;27.63;46.84;96385.56;5013428;28;20022;-31
2023/07/28 02:06:37;;;;;;;6.47;1.67;;;;;;;27.60;46.91;96375.47;5013323;28;20026;-29
2023/07/28 02:09:02;;;;;;;4.85;1.42;;;;;;;27.60;46.84;96375.47;5014048;28;20025;-30
2023/07/28 02:11:27;;;;;;;4.85;1.50;;;;;;;27.57;47.04;96373.81;5013350;28;20026;-30
2023/07/28 02:13:53;;;;;;;5.00;2.00;;;;;;;27.49;47.31;96377.22;5013206;28;20026;-29
2023/07/28 02:16:18;;;;;;;6.50;1.60;;;;;;;27.51;47.30;96371.09;5013474;28;20057;-29
2023/07/28 02:18:44;;;;;;;5.80;1.70;;;;;;;27.61;46.91;96361.00;5013146;28;20026;-29
2023/07/28 02:21:09;;;;;;;3.55;1.67;;;;;;;27.55;46.80;96357.59;5016583;28;20062;-30
2023/07/28 02:23:35;;;;;;;6.30;1.80;;;;;;;27.44;47.38;96366.97;5017251;28;20026;-29
2023/07/28 02:26:00;;;;;;;5.95;1.80;;;;;;;27.40;47.39;96380.47;5017005;28;20500;-29
2023/07/28 02:28:26;;;;;;;7.07;1.85;;;;;;;27.64;46.75;96381.47;5017064;28;20022;-29
2023/07/28 02:30:52;;;;;;;7.72;1.92;;;;;;;27.56;46.62;96381.41;5016896;28;20030;-29
2023/07/28 02:33:17;;;;;;;8.43;2.03;;;;;;;27.41;47.38;96379.19;5017138;28;20112;-29
2023/07/28 02:35:42;;;;;;;5.45;2.03;;;;;;;27.53;47.01;96380.41;5017376;28;20022;-29
2023/07/28 02:38:08;;;;;;;5.63;1.77;;;;;;;27.65;46.36;96375.38;5017122;28;20111;-29
2023/07/28 02:40:34;;;;;;;4.95;1.70;;;;;;;27.58;46.54;96367.66;5016802;28;20347;-29
2023/07/28 02:43:00;;;;;;;4.20;1.90;;;;;;;27.45;47.08;96374.00;5015755;28;20030;-29
2023/07/28 02:45:25;;;;;;;10.88;2.40;;;;;;;27.59;46.54;96369.16;5016873;28;20030;-29
2023/07/28 02:47:51;;;;;;;6.90;2.10;;;;;;;27.67;46.38;96377.63;5016486;28;20052;-31
2023/07/28 02:50:16;;;;;;;6.65;1.95;;;;;;;27.72;46.45;96382.28;5016469;28;20496;-29
2023/07/28 02:52:42;;;;;;;5.40;1.88;;;;;;;27.78;45.83;96375.31;5023993;28;20358;-29
2023/07/28 02:55:08;;;;;;;7.40;2.05;;;;;;;27.52;46.86;96380.97;5016608;28;20104;-29
2023/07/28 02:57:34;;;;;;;10.18;2.00;;;;;;;27.65;46.72;96382.97;5015627;28;20033;-30
2023/07/28 02:59:59;;;;;;;7.07;2.08;;;;;;;27.60;46.81;96379.03;5016548;28;20033;-29
2023/07/28 03:02:25;;;;;;;5.20;1.98;;;;;;;27.38;47.29;96379.50;5016698;28;20013;-29
2023/07/28 03:04:50;;;;;;;6.50;1.55;;;;;;;27.43;46.85;96373.06;5016423;28;20384;-29
2023/07/28 03:07:16;;;;;;;4.63;1.75;;;;;;;27.53;46.64;96365.75;5016566;28;20359;-29
2023/07/28 03:09:42;;;;;;;6.57;1.90;;;;;;;27.59;46.66;96362.84;5016369;28;20508;-29
2023/07/28 03:12:08;;;;;;;5.53;1.90;;;;;;;27.58;46.60;96375.28;5016275;28;20025;-30
2023/07/28 03:14:33;;;;;;;5.63;1.70;;;;;;;27.48;46.93;96380.53;5016323;28;20032;-29
2023/07/28 03:16:59;;;;;;;5.35;1.90;;;;;;;27.51;47.35;96371.09;5015799;28;20060;-29
2023/07/28 03:19:24;;;;;;;5.70;1.58;;;;;;;27.66;46.62;96368.50;5016526;28;20022;-29
2023/07/28 03:21:50;;;;;;;6.13;1.60;;;;;;;27.72;46.94;96369.09;5016248;28;20034;-31
2023/07/28 03:24:15;;;;;;;5.05;2.33;;;;;;;27.64;47.55;96373.13;5015963;28;20018;-30
2023/07/28 03:26:40;;;;;;;7.22;2.15;;;;;;;27.64;47.22;96375.91;5015889;28;20040;-29
2023/07/28 03:29:06;;;;;;;5.57;1.60;;;;;;;27.73;46.88;96370.59;5015719;28;20030;-29
2023/07/28 03:31:35;;;;;;;3.90;1.52;;;;;;;27.70;46.78;96368.16;5015081;28;20018;-29
2023/07/28 03:34:01;;;;;;;5.43;1.65;;;;;;;27.70;47.09;96379.28;5021826;28;20069;-29
2023/07/28 03:36:26;;;;;;;6.25;2.20;;;;;;;27.70;47.27;96377.25;5016107;28;20098;-29
2023/07/28 03:38:52;;;;;;;3.88;1.60;;;;;;;27.80;47.02;96383.13;5014535;28;20018;-29
2023/07/28 03:41:17;;;;;;;3.25;1.60;;;;;;;27.69;47.07;96378.56;5015662;28;20029;-29
2023/07/28 03:43:43;;;;;;;7.40;2.00;;;;;;;27.74;47.22;96374.88;5016157;28;20029;-29
2023/07/28 03:46:08;;;;;;;6.10;2.10;;;;;;;27.64;47.52;96392.63;5015232;28;20022;-30
2023/07/28 03:48:34;;;;;;;5.85;1.95;;;;;;;27.83;47.04;96393.16;5015524;28;20113;-29
2023/07/28 03:50:59;;;;;;;4.20;1.33;;;;;;;27.80;47.70;96388.69;5020539;28;20292;-29
2023/07/28 03:53:24;;;;;;;5.25;1.70;;;;;;;27.91;47.28;96393.25;5016437;28;20505;-29
2023/07/28 03:55:50;;;;;;;5.93;2.08;;;;;;;27.65;48.16;96382.97;5015030;28;20018;-31
2023/07/28 03:58:15;;;;;;;4.38;1.92;;;;;;;27.76;47.95;96379.91;5015393;28;20022;-29
2023/07/28 04:00:41;;;;;;;5.88;1.75;;;;;;;27.74;47.94;96383.25;5015469;28;20056;-29
2023/07/28 04:03:06;;;;;;;6.13;1.42;;;;;;;27.73;47.98;96392.16;5015833;28;20417;-29
2023/07/28 04:05:32;;;;;;;6.47;2.20;;;;;;;27.68;48.32;96393.78;5015109;28;20438;-29
2023/07/28 04:07:57;;;;;;;5.38;1.90;;;;;;;27.80;48.11;96391.50;5015188;28;20076;-30
2023/07/28 04:10:23;;;;;;;5.03;1.60;;;;;;;27.70;48.32;96390.44;5015371;28;20057;-30
2023/07/28 04:12:49;;;;;;;6.25;1.67;;;;;;;27.61;48.99;96402.06;5015174;28;20418;-30
2023/07/28 04:15:14;;;;;;;4.35;1.80;;;;;;;27.75;48.51;96393.09;5015301;28;20025;-30
2023/07/28 04:17:40;;;;;;;6.05;2.00;;;;;;;27.63;48.74;96402.25;5015103;28;20026;-29
2023/07/28 04:20:06;;;;;;;7.30;2.75;;;;;;;27.71;48.34;96401.03;5015322;28;20022;-29
2023/07/28 04:22:31;;;;;;;8.23;2.97;;;;;;;27.76;48.52;96399.44;5015228;28;20079;-29
2023/07/28 04:24:57;;;;;;;9.02;3.30;;;;;;;27.71;48.85;96405.88;5015164;28;20462;-30
2023/07/28 04:27:22;;;;;;;8.13;2.60;;;;;;;27.74;48.30;96402.75;5014779;28;20366;-29
2023/07/28 04:29:48;;;;;;;7.63;2.17;;;;;;;27.71;48.95;96403.09;5014849;28;20073;-29
2023/07/28 04:32:13;;;;;;;3.80;1.80;;;;;;;27.75;48.90;96397.94;5015147;28;20029;-30
2023/07/28 04:34:39;;;;;;;4.68;2.00;;;;;;;27.78;48.81;96402.44;5014700;28;20108;-29
2023/07/28 04:37:04;;;;;;;6.57;2.03;;;;;;;27.70;49.06;96409.94;5014487;28;20014;-29
2023/07/28 04:39:30;;;;;;;6.43;1.70;;;;;;;27.70;49.05;96419.06;5022103;28;20091;-30
2023/07/28 04:41:55;;;;;;;8.15;2.15;;;;;;;27.67;49.43;96419.41;5014599;28;20021;-29
2023/07/28 04:44:21;;;;;;;8.13;2.65;;;;;;;27.70;48.99;96423.88;5014342;28;20025;-29
2023/07/28 04:46:47;;;;;;;7.93;1.90;;;;;;;27.60;49.73;96409.66;5014416;28;20046;-29
2023/07/28 04:49:13;;;;;;;3.22;1.73;;;;;;;27.79;49.28;96415.06;5014348;28;20052;-29
2023/07/28 04:51:39;;;;;;;4.50;1.77;;;;;;;27.78;49.03;96425.47;5015544;28;20504;-29
2023/07/28 04:54:05;;;;;;;4.88;1.83;;;;;;;27.67;49.73;96424.97;5014427;28;20033;-30
2023/07/28 04:56:30;;;;;;;5.78;2.08;;;;;;;27.61;49.80;96427.88;5014550;28;20054;-29
2023/07/28 04:58:58;;;;;;;5.97;2.35;;;;;;;27.61;49.97;96424.34;5014302;28;20038;-29
2023/07/28 05:01:24;;;;;;;4.32;2.40;;;;;;;27.64;49.64;96423.28;5014425;28;20104;-29
2023/07/28 05:03:49;;;;;;;6.45;2.50;;;;;;;27.63;49.40;96414.16;5014284;28;20112;-29
2023/07/28 05:06:15;;;;;;;5.10;1.95;;;;;;;27.68;49.71;96412.53;5014523;28;20104;-30
2023/07/28 05:08:40;;;;;;;6.50;1.75;;;;;;;27.41;50.38;96418.16;5014031;28;20026;-29
2023/07/28 05:11:05;;;;;;;8.38;1.90;;;;;;;27.61;50.09;96421.56;5014344;28;20021;-29
2023/07/28 05:13:31;;;;;;;6.15;2.67;;;;;;;27.53;49.97;96427.78;5014266;28;20028;-29
2023/07/28 05:15:56;;;;;;;7.00;2.38;;;;;;;27.59;50.05;96429.69;5012399;28;20120;-31
2023/07/28 05:18:22;;;;;;;7.47;2.10;;;;;;;27.63;49.93;96427.34;5014062;28;20014;-29
2023/07/28 05:20:47;;;;;;;8.40;1.90;;;;;;;27.65;49.64;96433.13;5013913;28;20374;-29
2023/07/28 05:23:13;;;;;;;3.63;2.20;;;;;;;27.71;49.71;96436.53;5014623;28;20076;-29
2023/07/28 05:25:38;;;;;;;5.18;1.92;;;;;;;27.64;50.12;96437.19;5013727;28;20018;-29
2023/07/28 05:28:03;;;;;;;7.88;2.00;;;;;;;27.51;50.24;96435.16;5013879;28;20087;-29
2023/07/28 05:30:29;;;;;;;5.43;2.05;;;;;;;27.69;50.06;96439.13;5013964;28;20025;-29
2023/07/28 05:32:54;;;;;;;5.95;2.22;;;;;;;27.54;50.46;96440.41;5014161;28;20029;-29
2023/07/28 05:35:20;;;;;;;6.50;2.30;;;;;;;27.53;50.14;96438.91;5013682;28;20040;-29
2023/07/28 05:37:46;;;;;;;8.65;2.10;;;;;;;27.61;50.37;96444.59;5014083;28;20433;-30
2023/07/28 05:40:12;;;;;;;8.15;2.63;;;;;;;27.60;50.01;96437.53;5013606;28;20029;-29
2023/07/28 05:42:38;;;;;;;3.15;1.45;;;;;;;27.58;50.16;96440.09;5013442;28;20100;-29
2023/07/28 05:45:04;;;;;;;6.93;2.28;;;;;;;27.62;49.66;96448.88;5013592;28;20105;-29
2023/07/28 05:47:29;;;;;;;5.45;1.83;;;;;;;27.57;50.04;96449.00;5011971;28;20050;-29
2023/07/28 05:49:54;;;;;;;7.13;2.10;;;;;;;27.78;49.89;96453.34;5012430;28;20079;-29
2023/07/28 05:52:20;;;;;;;4.93;1.98;;;;;;;27.67;50.42;96450.81;5014289;28;20053;-29
2023/07/28 05:54:46;;;;;;;7.80;2.42;;;;;;;27.76;49.99;96449.59;5013151;28;20025;-30
2023/07/28 05:57:11;;;;;;;5.68;1.60;;;;;;;27.80;49.81;96450.00;5013409;28;20489;-30
2023/07/28 05:59:37;;;;;;;5.18;1.85;;;;;;;27.71;49.94;96453.97;5013577;28;20063;-30
2023/07/28 06:02:02;;;;;;;7.28;2.22;;;;;;;27.70;50.58;96457.31;5013142;28;20026;-29
2023/07/28 06:04:28;;;;;;;6.47;2.28;;;;;;;27.63;50.62;96455.94;5013586;28;20466;-30
2023/07/28 06:06:53;;;;;;;5.72;2.05;;;;;;;27.52;50.78;96461.75;5013838;28;20032;-29
2023/07/28 06:09:19;;;;;;;7.97;1.80;;;;;;;27.61;50.76;96443.84;5013383;28;20080;-30
2023/07/28 06:11:44;;;;;;;3.67;1.38;;;;;;;27.52;50.91;96448.56;5013199;28;20033;-29
2023/07/28 06:14:11;;;;;;;5.80;1.50;;;;;;;27.50;50.94;96455.94;5013209;28;20038;-29
2023/07/28 06:16:36;;;;;;;4.50;2.00;;;;;;;27.77;50.36;96459.44;5013342;28;20046;-30
2023/07/28 06:19:02;;;;;;;6.90;1.88;;;;;;;27.46;51.49;96461.84;5013196;28;20429;-30
2023/07/28 06:21:27;;;;;;;5.00;2.00;;;;;;;27.54;50.73;96461.94;5013320;28;20025;-29
2023/07/28 06:23:53;;;;;;;6.80;2.05;;;;;;;27.53;51.08;96454.88;5013547;28;20417;-29
2023/07/28 06:26:18;;;;;;;7.75;1.85;;;;;;;27.35;51.73;96445.38;5013219;28;20417;-28
2023/07/28 06:28:44;;;;;;;6.53;1.65;;;;;;;27.48;51.44;96450.16;5012275;28;20033;-30
2023/07/28 06:31:10;;;;;;;4.10;1.83;;;;;;;27.57;51.25;96452.53;5012869;28;20040;-29
2023/07/28 06:33:39;;;;;;;5.40;1.70;;;;;;;27.57;51.19;96471.31;5020253;28;20025;-29
2023/07/28 06:36:05;;;;;;;6.47;1.83;;;;;;;27.60;51.08;96479.31;5013193;28;20444;-30
2023/07/28 06:38:30;;;;;;;5.72;1.75;;;;;;;27.63;50.83;96463.56;5013383;28;20092;-29
2023/07/28 06:40:56;;;;;;;4.13;1.85;;;;;;;27.77;51.05;96467.81;5012964;28;20424;-29
2023/07/28 06:43:21;;;;;;;4.00;2.40;;;;;;;27.65;51.40;96472.88;5012977;28;20062;-29
2023/07/28 06:45:50;;;;;;;4.88;2.15;;;;;;;27.53;51.95;96475.13;5012867;28;20018;-30
2023/07/28 06:48:16;;;;;;;7.72;2.13;;;;;;;27.64;51.13;96474.16;5012505;28;20038;-29
2023/07/28 06:50:41;;;;;;;8.20;2.28;;;;;;;27.69;50.97;96473.31;5013440;28;20026;-29
2023/07/28 06:53:07;;;;;;;5.25;2.35;;;;;;;27.74;51.12;96480.03;5011386;28;20029;-29
2023/07/28 06:55:32;;;;;;;7.72;2.33;;;;;;;27.69;51.47;96489.28;5012932;28;20014;-29
2023/07/28 06:57:58;;;;;;;7.93;2.00;;;;;;;27.74;51.19;96488.38;5012858;28;20041;-29
2023/07/28 07:00:23;;;;;;;5.90;2.30;;;;;;;27.75;50.74;96482.28;5012553;28;20046;-29
2023/07/28 07:02:49;;;;;;;3.85;1.80;;;;;;;27.64;51.67;96481.78;5013234;28;20025;-30
2023/07/28 07:05:14;;;;;;;4.35;2.00;;;;;;;27.70;51.61;96479.59;5013315;28;20452;-29
2023/07/28 07:07:40;;;;;;;5.13;2.00;;;;;;;27.69;51.23;96478.13;5014987;28;20030;-29
2023/07/28 07:10:07;;;;;;;5.30;2.72;;;;;;;27.85;51.03;96493.72;5016343;28;20026;-29
2023/07/28 07:12:32;;;;;;;10.00;2.53;;;;;;;27.62;51.59;96493.44;5016456;28;20079;-30
2023/07/28 07:14:57;;;;;;;7.70;2.40;;;;;;;27.83;51.16;96496.28;5016525;28;20041;-30
2023/07/28 07:17:23;;;;;;;4.55;2.10;;;;;;;27.78;51.50;96505.53;5016453;28;20026;-29
2023/07/28 07:19:48;;;;;;;3.60;1.88;;;;;;;27.70;51.61;96507.47;5016672;28;20045;-29
2023/07/28 07:22:14;;;;;;;6.75;2.20;;;;;;;27.77;51.51;96506.81;5015850;28;20022;-30
2023/07/28 07:24:39;;;;;;;4.30;1.83;;;;;;;27.78;50.79;96509.06;5016049;28;20026;-29
2023/07/28 07:27:10;;;;;;;6.28;1.80;;;;;;;27.83;50.33;96510.97;5016393;28;20065;-29
2023/07/28 07:29:39;;;;;;;6.47;2.03;;;;;;;27.73;50.79;96517.53;5015944;28;20022;-29
2023/07/28 07:32:06;;;;;;;5.90;1.80;;;;;;;27.91;50.23;96515.91;5016086;28;20097;-29
2023/07/28 07:34:32;;;;;;;3.80;1.90;;;;;;;27.67;50.89;96511.34;5023234;28;20025;-29
2023/07/28 07:36:57;;;;;;;6.38;1.88;;;;;;;27.78;50.67;96517.44;5014559;28;20026;-30
2023/07/28 07:39:22;;;;;;;6.70;1.83;;;;;;;27.88;50.17;96515.69;5015917;28;20025;-29
2023/07/28 07:41:48;;;;;;;5.38;1.75;;;;;;;28.09;49.70;96520.53;5015709;28;20018;-29
2023/07/28 07:44:13;;;;;;;4.93;1.67;;;;;;;27.82;49.87;96515.03;5015874;28;20029;-29
2023/07/28 07:46:39;;;;;;;3.97;1.45;;;;;;;27.86;49.39;96511.94;5015331;28;20050;-29
2023/07/28 07:49:05;;;;;;;4.22;1.40;;;;;;;27.98;49.03;96515.97;5015674;28;20112;-29
2023/07/28 07:51:31;;;;;;;2.70;1.48;;;;;;;27.98;48.45;96512.44;5015509;28;20026;-29
2023/07/28 07:53:56;;;;;;;3.20;1.63;;;;;;;27.95;48.81;96519.84;5015469;28;20080;-29
2023/07/28 07:56:22;;;;;;;4.50;1.65;;;;;;;27.95;48.68;96530.22;5015577;28;20026;-28
2023/07/28 07:58:48;;;;;;;3.58;1.50;;;;;;;28.06;48.29;96522.38;5015380;28;20462;-29
2023/07/28 08:01:14;;;;;;;3.65;1.80;;;;;;;28.01;48.69;96517.69;5015578;28;20432;-29
2023/07/28 08:03:39;;;;;;;5.57;1.60;;;;;;;28.20;48.19;96525.88;5015234;28;20034;-31
2023/07/28 08:06:05;;;;;;;2.55;2.00;;;;;;;28.25;47.32;96533.38;5015157;28;20018;-29
2023/07/28 08:08:31;;;;;;;1.90;1.30;;;;;;;28.21;46.80;96544.13;5015363;28;20028;-30
2023/07/28 08:10:56;;;;;;;7.07;1.83;;;;;;;28.18;46.61;96542.44;5015167;28;20060;-29
2023/07/28 08:13:22;;;;;;;3.53;1.52;;;;;;;28.16;46.77;96537.38;5015051;28;20054;-30
2023/07/28 08:15:47;;;;;;;8.00;2.13;;;;;;;28.14;46.48;96545.50;5013670;28;20018;-29
2023/07/28 08:18:13;;;;;;;3.20;1.73;;;;;;;28.07;46.71;96551.00;5014885;28;20020;-29
2023/07/28 08:20:39;;;;;;;3.92;1.55;;;;;;;28.10;46.80;96559.03;5015221;28;20532;-30
2023/07/28 08:23:04;;;;;;;5.50;1.70;;;;;;;28.21;46.54;96550.44;5015248;28;20099;-29
2023/07/28 08:25:30;;;;;;;4.63;1.88;;;;;;;27.93;47.01;96543.97;5014927;28;20020;-29
2023/07/28 08:27:55;;;;;;;4.40;1.58;;;;;;;28.14;46.74;96544.75;5014698;28;20049;-29
2023/07/28 08:30:21;;;;;;;7.78;1.75;;;;;;;28.15;46.77;96546.25;5014785;28;20492;-29
2023/07/28 08:32:46;;;;;;;5.45;1.58;;;;;;;28.38;46.26;96536.13;5020418;28;20542;-28
2023/07/28 08:35:12;;;;;;;3.40;1.67;;;;;;;28.16;46.68;96540.16;5016025;28;20083;-29
2023/07/28 08:37:38;;;;;;;4.40;2.22;;;;;;;28.33;46.46;96547.38;5015125;28;20382;-29
2023/07/28 08:40:07;;;;;;;4.50;1.65;;;;;;;28.28;46.64;96560.19;5014620;28;20065;-29
2023/07/28 08:42:40;;;;;;;4.25;1.70;;;;;;;28.43;46.20;96556.81;5015077;28;20084;-29
2023/07/28 08:45:08;;;;;;;5.13;1.70;;;;;;;28.33;46.56;96562.09;5014787;28;20022;-29
2023/07/28 08:47:33;;;;;;;6.95;1.98;;;;;;;28.14;46.88;96578.22;5014076;28;20096;-29
2023/07/28 08:49:59;;;;;;;4.78;1.98;;;;;;;28.31;46.63;96580.69;5014487;28;20088;-29
2023/07/28 08:52:24;;;;;;;7.50;2.03;;;;;;;28.35;46.73;96572.72;5014364;28;20024;-28
2023/07/28 08:54:50;;;;;;;5.13;1.98;;;;;;;28.27;47.03;96569.84;5014286;28;20358;-30
2023/07/28 08:57:16;;;;;;;6.40;1.98;;;;;;;28.16;47.26;96562.47;5014171;28;20477;-29
2023/07/28 08:59:47;;;;;;;5.15;2.00;;;;;;;28.23;47.38;96575.00;5014086;28;20025;-29
2023/07/28 09:02:15;;;;;;;4.88;2.13;;;;;;;28.30;48.21;96577.13;5014414;28;20025;-29
2023/07/28 09:04:41;;;;;;;4.13;2.03;;;;;;;28.13;50.40;96577.47;5014078;28;20029;-29
2023/07/28 09:07:07;;;;;;;7.55;2.03;;;;;;;28.08;50.87;96583.91;5014164;28;20037;-28
2023/07/28 09:09:33;;;;;;;6.78;2.00;;;;;;;28.26;50.55;96573.91;5014234;28;20026;-29
2023/07/28 09:11:59;;;;;;;3.85;1.90;;;;;;;28.21;50.67;96588.72;5014457;28;20029;-29
2023/07/28 09:14:25;;;;;;;4.80;2.10;;;;;;;28.17;50.86;96585.50;5014028;28;20026;-29
2023/07/28 09:16:51;;;;;;;8.18;2.13;;;;;;;28.21;50.49;96572.75;5013837;28;20061;-28
2023/07/28 09:19:17;;;;;;;5.25;2.15;;;;;;;28.24;50.89;96571.66;5014429;28;20493;-29
2023/07/28 09:21:45;;;;;;;3.92;1.90;;;;;;;28.20;51.16;96560.09;5014181;28;20026;-29
2023/07/28 09:24:12;;;;;;;5.30;1.85;;;;;;;28.12;50.68;96559.25;5014458;28;20021;-29
2023/07/28 09:26:49;;;;;;;5.38;1.95;;;;;;;28.32;50.11;96562.63;5013976;28;20021;-28
2023/07/28 09:29:17;;;;;;;7.35;1.90;;;;;;;28.21;50.43;96569.97;5013070;28;20018;-30
2023/07/28 09:31:44;;;;;;;5.22;1.80;;;;;;;28.28;49.87;96554.63;5013766;28;20026;-29
2023/07/28 09:34:11;;;;;;;4.85;1.85;;;;;;;28.13;49.93;96554.41;5020585;28;20034;-29
2023/07/28 09:36:38;;;;;;;6.45;2.03;;;;;;;28.21;49.10;96544.13;5013607;28;20024;-29
2023/07/28 09:39:07;;;;;;;6.72;1.90;;;;;;;28.43;48.86;96542.88;5013420;28;20021;-29
2023/07/28 09:41:35;;;;;;;8.80;2.33;;;;;;;28.24;49.01;96554.19;5020975;28;20462;-29
2023/07/28 09:44:00;;;;;;;6.30;1.70;;;;;;;28.53;47.62;96553.00;5013824;28;20061;-28
2023/07/28 09:46:29;;;;;;;4.60;1.75;;;;;;;28.41;47.61;96551.03;5013229;28;20100;-29
2023/07/28 09:48:59;;;;;;;4.88;1.80;;;;;;;28.58;47.23;96554.13;5013507;28;20052;-29
2023/07/28 09:51:30;;;;;;;4.93;2.15;;;;;;;28.40;46.33;96535.56;5013419;28;20037;-29
2023/07/28 09:54:02;;;;;;;4.25;1.67;;;;;;;28.38;45.99;96530.53;5013649;28;20022;-29
2023/07/28 09:56:32;;;;;;;4.18;1.65;;;;;;;28.58;45.83;96518.63;5013679;28;20032;-29
2023/07/28 09:58:59;;;;;;;5.05;2.08;;;;;;;28.41;45.77;96507.13;5013334;28;20029;-30
2023/07/28 10:01:26;;;;;;;4.53;1.70;;;;;;;28.50;45.15;96508.69;5013914;28;20032;-29
2023/07/28 10:03:51;;;;;;;5.00;1.75;;;;;;;28.32;45.54;96502.00;5014158;28;20095;-28
2023/07/28 10:06:23;;;;;;;3.50;1.70;;;;;;;28.24;45.71;96507.53;5013538;28;20018;-29
2023/07/28 10:08:49;;;;;;;5.20;1.80;;;;;;;28.42;45.39;96519.03;5013256;28;20076;-28
2023/07/28 10:11:18;;;;;;;5.32;1.70;;;;;;;28.29;45.25;96519.09;5013526;28;20417;-29
2023/07/28 10:13:45;;;;;;;4.82;2.00;;;;;;;28.47;45.06;96513.31;5013547;28;20485;-28
2023/07/28 10:16:14;;;;;;;5.95;1.80;;;;;;;28.45;44.78;96518.69;5013197;28;20018;-29
2023/07/28 10:18:40;;;;;;;6.50;2.17;;;;;;;28.41;45.31;96518.28;5013171;28;20481;-29
2023/07/28 10:21:16;;;;;;;4.82;1.95;;;;;;;28.48;45.03;96516.84;5013210;28;20512;-28
2023/07/28 10:23:44;;;;;;;10.77;2.28;;;;;;;28.55;44.91;96513.41;5013360;28;20350;-29
2023/07/28 10:26:09;;;;;;;5.63;1.80;;;;;;;28.55;45.12;96521.78;5013225;28;20049;-29
2023/07/28 10:28:43;;;;;;;5.05;1.80;;;;;;;28.42;45.50;96525.38;5013114;28;20022;-30
2023/07/28 10:31:11;;;;;;;3.17;1.60;;;;;;;28.66;45.01;96529.84;5013043;28;20461;-29
2023/07/28 10:33:38;;;;;;;3.00;1.40;;;;;;;28.83;44.72;96515.50;5013962;28;20024;-29
2023/07/28 10:36:34;;;;;;;3.67;1.80;;;;;;;28.94;44.91;96524.31;5013109;28;20429;-28
2023/07/28 10:39:00;;;;;;;5.40;1.85;;;;;;;28.86;44.86;96511.63;5013240;28;20393;-29
2023/07/28 10:41:25;;;;;;;3.47;1.77;;;;;;;29.00;44.48;96503.91;5014820;28;20029;-28
2023/07/28 10:43:51;;;;;;;2.55;1.52;;;;;;;28.91;44.93;96508.69;5016946;28;20370;-29
2023/07/28 10:46:20;;;;;;;3.60;1.65;;;;;;;29.17;44.28;96490.22;5016669;28;20030;-29
2023/07/28 10:48:49;;;;;;;5.00;1.52;;;;;;;29.06;44.38;96473.75;5016655;28;20030;-29
2023/07/28 10:51:33;;;;;;;5.75;2.00;;;;;;;29.07;44.51;96466.88;5016901;28;20076;-29
2023/07/28 10:54:00;;;;;;;3.80;1.65;;;;;;;29.04;44.22;96470.78;5016997;28;20509;-29
2023/07/28 10:56:26;;;;;;;5.32;1.75;;;;;;;29.05;44.37;96477.88;5016803;28;20036;-29
2023/07/28 10:58:57;;;;;;;5.97;1.70;;;;;;;28.95;44.26;96486.72;5016772;28;20013;-30
2023/07/28 11:01:35;;;;;;;3.20;1.70;;;;;;;29.05;44.26;96491.84;5015166;28;20080;-30
2023/07/28 11:04:08;;;;;;;4.07;1.70;;;;;;;29.06;44.21;96493.31;5016699;28;20028;-29
2023/07/28 11:06:34;;;;;;;3.58;1.80;;;;;;;29.10;43.89;96497.25;5016517;28;20056;-29
2023/07/28 11:08:59;;;;;;;5.70;1.70;;;;;;;29.10;43.69;96502.09;5023956;28;20654;-30
2023/07/28 11:11:25;;;;;;;4.20;1.60;;;;;;;29.06;44.06;96513.59;5016260;28;20025;-29
2023/07/28 11:13:51;;;;;;;4.10;1.75;;;;;;;29.05;44.27;96516.97;5016602;28;20030;-28
2023/07/28 11:16:17;;;;;;;5.57;1.73;;;;;;;29.25;43.72;96518.94;5016558;28;20029;-28
2023/07/28 11:18:43;;;;;;;5.03;1.65;;;;;;;29.23;43.61;96527.13;5015981;28;20021;-28
2023/07/28 11:21:08;;;;;;;4.78;1.90;;;;;;;29.24;43.36;96525.81;5016265;28;20486;-29
2023/07/28 11:23:34;;;;;;;5.57;1.80;;;;;;;29.18;43.53;96516.84;5016439;28;20488;-29
2023/07/28 11:25:59;;;;;;;4.13;1.33;;;;;;;29.29;42.78;96503.34;5016025;28;20030;-29
2023/07/28 11:28:25;;;;;;;4.10;1.60;;;;;;;29.15;43.11;96509.59;5016013;28;20022;-29
2023/07/28 11:30:51;;;;;;;3.67;1.58;;;;;;;29.04;43.29;96507.09;5016013;28;20025;-29